DANİSH PİGEON OLR 2018-FİNAL 400 km

  • HOT-SPOT – FINALE – VERSELE LAGA Flyvningen

  • Release Point: Göttingen   Distance: 400 km    Release Time: 01.09.2018 08:30:00 (GMT +2:00)
  • basketed Pigeons: 847    arrived Pigeons: 415      expected Pigeons: 432
HOT-SPOT – FINALE – VERSELE LAGA Flyvningen Result List
Rank Fancier Team Country Pigeon Arrival Speed [m/min] Pigeon Name
1 De Wachter Frans Belgium BE-18-6036455 01.09.2018 15:08:40.53 1003.3223 Jeanine
2 Familie Soellner Familie Soellner Germany DV-02733-18-1888 01.09.2018 15:08:41.29 1003.2904
3 Karl Heinz Wichert Germany DV-2618-18-702 01.09.2018 15:09:18.43 1001.7351
4 Goran Trailovic Sweden S-009-18-00203 01.09.2018 15:09:18.43 1001.7351
5 Tony & Brian Denmark 037-18-05014 01.09.2018 15:09:18.43 1001.7351 Tompet
6 Christian Mikkelsen Denmark 075-18-01760 01.09.2018 15:09:18.43 1001.7351 Mikkel
7 Team Turteltauben Germany DV-01906-18-00247 01.09.2018 15:09:18.43 1001.7351
8 Rasserne Denmark 093-18-01063 01.09.2018 15:09:18.43 1001.7351
9 Dr. Henk de Weerd pigeons Netherlands NL-18-1167213 01.09.2018 15:09:18.43 1001.7351
10 Team Jebjerg Denmark 170-18-00387 01.09.2018 15:19:10.70 977.5689
11 ZG Helios Yu Tao & Hübner & Gehrken Germany DV-4195-18-712 01.09.2018 15:19:10.70 977.5689
12 Harry’s Grandchildren Germany DV-1777-18-500 01.09.2018 15:19:10.70 977.5689
13 Team Chr. Petersen og Søn Denmark 140-18-00081 01.09.2018 15:19:10.70 977.5689
14 Hans E. Pedersen Denmark 127-18-00180 01.09.2018 15:19:10.70 977.5689
15 Orla Kærgaard Denmark 140-18-00136 01.09.2018 15:19:10.70 977.5689
16 Team Myreng Norway NO-004-18-00074 01.09.2018 15:19:10.70 977.5689 Myreng-gubben
17 Toncho Metodiev Denmark 071-18-00933 01.09.2018 15:19:10.70 977.5689
18 Krzysztof Bury Norway NO-080-18-01464 01.09.2018 15:19:10.70 977.5689
19 Niels J. Paulin Denmark 063-18-09280 01.09.2018 15:19:10.70 977.5689
20 Preben + Hanne Low Denmark 071-18-00879 01.09.2018 15:19:10.70 977.5689 Isabela
21 Familie Soellner Familie Soellner Germany DV-02733-18-1852 01.09.2018 15:19:10.70 977.5689
22 Team GPS Netherlands NL-18-1388530 01.09.2018 15:19:10.70 977.5689
23 Winkie Pigeons Spain ES-18-144346 01.09.2018 15:19:10.70 977.5689
24 Team Løgumkloster Denmark 207-18-00462 01.09.2018 15:19:10.70 977.5689 Johanne
25 Dirk Gebert Norway NO-015-18-187 01.09.2018 15:19:10.70 977.5689
26 Oliver Heckl Germany DV-08879-18-1307 01.09.2018 15:19:10.70 977.5689
27 Christian Mikkelsen Denmark 075-18-01754 01.09.2018 15:19:10.70 977.5689 Jensen
28 Verdeyen Francis & Bart Belgium BE-18-2100724 01.09.2018 15:19:10.70 977.5689
29 Eigil Jensen Denmark 193-18-00360 01.09.2018 15:19:10.70 977.5689
30 Sigurd Torgilsteit Norway NO-026-18-00267 01.09.2018 15:19:10.70 977.5689 Grumpy Pensionist
31 Kristian Søndergård Denmark 033-18-00102 01.09.2018 15:19:10.70 977.5689
32 Niels J. Paulin Denmark 063-18-09277 01.09.2018 15:19:10.70 977.5689
33 Team Kegleklubben 1864 Denmark 070-18-00290 01.09.2018 15:27:09.33 958.8750 Hr. Møller
34 Team Blokkungerne Norway N-024-18-00209 01.09.2018 15:27:11.19 958.8038 Påi
35 Team Derby Sevilla Spain NL-18-1324931 01.09.2018 15:27:45.07 957.5078
36 Kurt Helgesen Arctic Loft Norway Norway NO-032-18-00215 01.09.2018 15:28:46.05 955.1840 Arctic bullet
37 Theo & Markus Lecke Germany DV-04087-18-67 01.09.2018 15:28:59.06 954.6896
38 Masscott United Kingdom GB-18-B-30327 01.09.2018 15:33:28.49 944.5662 Viper
39 Team Bjerg Denmark 004-18-02142 01.09.2018 15:33:37.10 944.2462 GUSTAV
40 Team Van de Bovenkamp/Jacobs Netherlands NL-18-1665546 01.09.2018 15:33:54.15 943.6132
41 Team Holding Denmark 073-18-05305 01.09.2018 15:34:03.25 943.2757 KREDIT
42 Gisle Lanke Norway NO-006-18-00103 01.09.2018 15:34:32.30 942.2000
43 Henrik Christiansen Denmark 164-18-00486 01.09.2018 15:34:33.52 942.1548
44 Feviks Eventyr Norway NO-014-18-192 01.09.2018 15:34:35.83 942.0694 Eventyr
45 Jørgen Greve Denmark 070-18-00099 01.09.2018 15:34:41.51 941.8594 KAJ 2
46 VIKATO Denmark 172-18-00111 01.09.2018 15:34:42.62 941.8184
47 Team Vibeke Denmark 070-18-00248 01.09.2018 15:34:43.36 941.7910 Henrik
48 ”Team Claus, Frederik & Ulrik” Denmark 232-18-00208 01.09.2018 15:34:48.23 941.6111
49 Dan Octavian Dominte Denmark RO-18-3090403 01.09.2018 15:34:51.72 941.4822 24 K MAGIC
50 Hold 1-2-3 Denmark 070-18-00506 01.09.2018 15:34:58.76 941.2222 Magnus
51 Team OS Norway N-19-18-00240 01.09.2018 15:35:48.66 939.3839 Fusa 3
52 Walther Thun Germany DV-01455-18-00148 01.09.2018 15:38:43.46 933.0005 Sylt Thun 3
53 Team Bjerg Denmark 004-18-02143 01.09.2018 15:40:12.77 929.7724 SELLE
54 Martin Sævareid Norway NO-032-18-00589 01.09.2018 15:41:58.97 925.9627 MS-89
55 633 Squadron United Kingdom GB-18-Z-06467 01.09.2018 15:42:55.87 923.9344 Terence Bellerby
56 Henning og Tommy Jørgensen Denmark 227-18-00137 01.09.2018 15:43:13.76 923.2985 Black Norman ONE
57 Sigurd Torgilsteit Norway NO-026-18-00277 01.09.2018 15:43:37.29 922.4635 Grumpy Noshow
58 Frk. Flindt Denmark 070-18-00264 01.09.2018 15:43:41.30 922.3213 Mona
59 Frank Sørensen Denmark 224-18-00253 01.09.2018 15:43:49.29 922.0382 Naya
60 Gerda og Karl Mikkelsen Denmark 075-18-01671 01.09.2018 15:43:49.67 922.0248 Tulle
61 Team Doris Denmark 063-18-09294 01.09.2018 15:43:56.01 921.8002
62 John Engel Denmark 070-18-00568 01.09.2018 15:44:26.69 920.7153 Engel 2
63 Team Morsø Denmark 075-18-02109 01.09.2018 15:44:40.10 920.2419 Calle
64 Michael Hansen Denmark 036-18-05296 01.09.2018 15:44:47.35 919.9861 DE 5296
65 Ivan Pedersen Denmark 250-18-06699 01.09.2018 15:44:56.14 919.6762 Markus
66 Rolf Helge Aspen Norway NO-016-18-00111 01.09.2018 15:46:28.41 916.4359
67 The Boys From Hardinxveld Netherlands NL-18-5131088 01.09.2018 15:46:52.57 915.5913
68 Rudy Jacobsen Denmark 075-18-01240 01.09.2018 15:47:11.93 914.9155
69 Shane Betts United Kingdom GB-18-X-03950 01.09.2018 15:48:23.19 912.4369
70 Edvard Engelsen Norway NO-018-18-00102 01.09.2018 15:49:25.99 910.2636
71 Team Turteltauben Germany DV-01906-18-00412 01.09.2018 15:51:58.96 905.0129
72 Team Turteltauben Germany DV-06143-18-00260 01.09.2018 15:52:03.78 904.8484
73 Team OK Denmark 077-18-00616 01.09.2018 15:52:59.07 902.9661 KC. 1
74 Norwegian TURBO Norway NO-026-18-340 01.09.2018 15:53:02.76 902.8408 Turbo-Nico
75 Team Holding Denmark 073-18-05449 01.09.2018 15:53:18.81 902.2960
76 Gr. 7 af NBF Norway NO-006-18-00102 01.09.2018 15:53:54.14 901.0991 Knut
77 TEAM V&V HAUGESUND Norway N-017-18-00656 01.09.2018 15:53:58.21 900.9614 JIV 4
78 Norwegian TURBO Norway NO-026-18-357 01.09.2018 15:55:42.53 897.4469 Turbo 1
79 ”Team Claus, Frederik & Ulrik” Denmark 232-18-00207 01.09.2018 15:55:59.30 896.8844
80 Nissen Denmark 240-18-01720 01.09.2018 15:56:08.18 896.5869 Vibevej
81 Bengt Ask Sweden S-55-18-00320 01.09.2018 15:56:33.77 895.7306
82 Karl Heinz Wichert Germany DV-2618-18-667 01.09.2018 15:56:50.36 895.1763
83 Peter Fuschera Germany DV-08345-18-083 01.09.2018 15:58:04.50 892.7077 Sylt Fuschera 3
84 EMIEL DENYS Belgium BE-18-3018467 01.09.2018 15:59:02.58 890.7833
85 Jørgen Dalgaard Denmark 055-18-00262 01.09.2018 15:59:02.58 890.7833
86 Jæren Brevdueforening Norway NO-015-18-01787 01.09.2018 15:59:44.69 889.3932
87 Familie Soellner Familie Soellner Germany DV-02733-18-1842 01.09.2018 16:07:19.95 874.6372
88 Team 140 Denmark 140-18-00301 01.09.2018 16:07:44.16 873.8662 Dino
89 Rene De Munter Belgium BE-18-6147580 01.09.2018 16:07:47.66 873.7548
90 Dickmann-Stroetges Netherlands NL-18-1272913 01.09.2018 16:09:37.31 870.2807
91 Team Aalborg Denmark 053-18-00101 01.09.2018 16:10:18.26 868.9903 Walli
92 Beyers Racing team Iluma Belgium BE-18-5069793 01.09.2018 16:10:21.49 868.8887
93 Team Jebjerg Denmark 170-18-00513 01.09.2018 16:10:22.27 868.8641 Johs.
94 Team Ray & S.Veiland Norway NO-026-18-01366 01.09.2018 16:10:29.85 868.6258
95 Dr.Ohnesorge Germany DV-03405-18-318 01.09.2018 16:12:45.89 864.3699
96 Konrad Sunde & Sønn Norway NO-016-18-00321 01.09.2018 16:13:03.60 863.8189
97 Team Preben-Bo-Lars Team Preben-Bo-Lars Denmark 068-18-00045 01.09.2018 16:14:03.07 861.9739 Smukke Preben
98 MURRAY AND MILLS United Kingdom GB-18-L-00881 01.09.2018 16:15:36.44 859.0930 Theo
99 Kurt Helgesen Arctic Loft Norway Norway NO-032-18-00204 01.09.2018 16:16:40.33 857.1328 Arctic scarface
100 Team Pape Denmark 164-18-00328 01.09.2018 16:18:37.16 853.5713 Mini Cooper
101 Haggenmüller-Scharp Germany DV-02741-18-008 01.09.2018 16:21:41.84 848.0014 die ella bella
102 Team Modena Master Denmark 232-18-00225 01.09.2018 16:25:08.41 841.8568
103 De Wachter Frans Belgium BE-18-6036440 01.09.2018 16:26:17.92 839.8092 AN
104 Team Arne og Rune Norway NO-026-18-01648 01.09.2018 16:27:22.14 837.9262
105 Bjørn Ove Helgesen Norway NOR-032-18-00122 01.09.2018 16:27:34.37 837.5686 DAPI DREAM
106 Team Jebjerg Denmark 066-18-00447 01.09.2018 16:28:47.52 835.4358
107 EMIEL DENYS-QIU QIAO ZHEN China BE-18-3018109 01.09.2018 16:28:59.98 835.0737
108 Paul Romkes Netherlands NL-18-4295631 01.09.2018 16:29:23.94 834.3780 Hiwott
109 Ivan Pedersen Denmark 250-18-06692 01.09.2018 16:29:58.21 833.3851 Charlotte
110 Scheinker-Flick Germany DV-01882-18-297 01.09.2018 16:30:32.48 832.3946 Sylt Hanno 3
111 Helle og Louis Denmark 046-18-00239 01.09.2018 16:35:21.82 824.1243 HATHI
112 Team Vikings Denmark 113-18-00148 01.09.2018 16:35:32.25 823.8293 Athelstan
113 Kurt Helgesen Arctic Loft Norway Norway NO-032-18-00202 01.09.2018 16:36:18.40 822.5263 Arctic wonder what
114 Peter Espersen Denmark 151-18-00514 01.09.2018 16:38:20.67 819.0939
115 KARAKURTPİGEONS Turkey TR-18-027105 01.09.2018 16:38:21.76 819.0634
116 Team Blokkungerne Norway N-024-18-00220 01.09.2018 16:39:52.42 816.5371 Erik
117 Poul Erik Hansen Denmark 027-18-08844 01.09.2018 16:39:55.08 816.4632
118 EMIEL DENYS Belgium BE-18-3018445 01.09.2018 16:39:56.97 816.4107
119 TEAM IKO & EDO Sweden S-10-18-0208 01.09.2018 16:40:46.06 815.0496 Kevin
120 Evald Jensen Denmark 076-18-00794 01.09.2018 16:41:40.06 813.5577 Odin
121 Helle og Louis Denmark 046-18-00223 01.09.2018 16:42:27.62 812.2482 SHERE KHAN
122 Team Pepsi Denmark 075-18-01511 01.09.2018 16:54:46.14 792.4417 Max
123 Team Nor-Pol Norway NO-026-18-01807 01.09.2018 16:55:14.53 791.6996
124 Team Kegleklubben 1864 Denmark 073-18-05348 01.09.2018 16:58:05.84 787.2507
125 Martinsen Denmark 073-18-05488 01.09.2018 16:58:09.74 787.1500
126 Hold 1-2-3 Denmark 070-18-00511 01.09.2018 16:58:15.54 787.0003 Isabella
127 sporting pigeon team Portugal POR-18-8459549 01.09.2018 17:02:33.45 780.4002
128 Team Vikings Denmark 113-18-00121 01.09.2018 17:07:41.93 772.6500 Ragnar Lothbrok
129 TEAM IKO & EDO Sweden S-10-18-0213 01.09.2018 17:18:19.15 757.1181 Hellie
130 PM Denmark 070-18-00262 01.09.2018 17:18:29.23 756.8774
131 Vagn Mortensen Denmark 164-18-00335 01.09.2018 17:19:29.12 755.4506 HURTIG CARL
132 Jupid-Jung Germany DV-08857-18-70 01.09.2018 17:19:52.39 754.8976 Nika
133 Team Tromøy/Geir Erling Birkeland Norway NO-014-18-261 01.09.2018 17:20:09.56 754.4902 Tromøy 5
134 Tim Macken Team 1 United States BE-18-6065759 01.09.2018 17:20:17.28 754.3071
135 Winkie Pigeons Spain ES-18-144462 01.09.2018 17:20:18.66 754.2744
136 Lauge M. Bak Denmark 066-18-00716 01.09.2018 17:20:24.49 754.1362
137 Gerda og Karl Mikkelsen Denmark 075-18-02243 01.09.2018 17:21:10.62 753.0447 Sally
138 Familie Soellner Familie Soellner Germany DV-02733-18-1855 01.09.2018 17:21:10.95 753.0369
139 Gerda og Karl Mikkelsen Denmark 075-18-02238 01.09.2018 17:24:54.44 747.7931 Kajoma
140 Karl Heinz Wichert Germany DV-2618-18-659 01.09.2018 17:31:01.27 739.3426
141 Bjørn Ove Helgesen Norway NOR-032-18-00131 01.09.2018 17:31:07.41 739.2028 DREVSJØ 131
142 Tandem in Memoriam Spain ESP-18-251120 01.09.2018 17:31:38.01 738.5068
143 Team Ostsseebad Boltenhagen Germany DV-06599-18-00381 01.09.2018 17:36:58.53 731.2942
144 Niels J. Paulin Denmark 063-18-09223 01.09.2018 17:38:36.60 729.1154
145 Team Lincs United Kingdom GB-18-X-48234 01.09.2018 17:38:42.67 728.9810 Old Leake
146 Jesper Hansen Denmark 073-18-05396 01.09.2018 17:43:09.86 723.1124 Jonas
147 Team Jørgensen Denmark 030-18-00398 01.09.2018 17:52:44.89 710.7975
148 Ivan Pedersen Denmark 250-18-06693 01.09.2018 17:53:06.43 710.3444 Samuel
149 Jupid-Jung Germany DV-08857-18-46 01.09.2018 18:00:17.34 701.3988 Leano
150 COMB. Luisman-Veltink Netherlands NL-18-1461018 01.09.2018 18:00:29.10 701.1578
151 Bjørn Ove Helgesen Norway NOR-032-18-00118 01.09.2018 18:06:48.63 693.4687 THEA
152 The Boys From Hardinxveld Netherlands NL-18-5174758 01.09.2018 18:12:26.36 686.7668 “BLUE DAPI PIET”
153 Gr. 7 af NBF Norway NO-008-18-00227 01.09.2018 18:13:22.96 685.6563 Ragnar Jø
154 Bjørn Myhra Norway NO-007-18-00143 01.09.2018 18:14:12.52 684.6869 NILLE
155 Team Bjerg Denmark 004-18-02144 01.09.2018 18:14:18.56 684.5689 MIKKEL 16
156 Walter Smith United Kingdom GB-18-N-10582 01.09.2018 18:21:41.32 676.0312
157 Team Appaz Feim Turkey TR-18-060838 01.09.2018 18:22:05.15 675.5777
158 Jupid-Jung Germany DV-08857-18-19 01.09.2018 18:22:10.59 675.4743 Kolja
159 Tim Macken Team 2 United States BE-18-6249234 01.09.2018 18:23:17.89 674.1973
160 Team Happy Pigeon Denmark 250-18-06655 01.09.2018 18:30:48.81 665.7640 Madonna
161 Longdells Lofts United Kingdom GB-18-H-05520 01.09.2018 18:38:48.01 657.0300
162 Gr. 7 af NBF Norway NO-006-18-00070 01.09.2018 18:41:54.61 653.6907 Steinar
163 Team Traj Norway NO-026-18-02161 01.09.2018 18:44:02.45 651.4225 Miss Rudi
164 Haggenmüller-Scharp Germany DV-04116-18-512 01.09.2018 18:48:19.81 646.9036 gaba 2
165 2 X Henry Denmark 087-18-00035 01.09.2018 18:51:33.60 643.5421
166 Team Myreng Norway NO-004-18-00075 01.09.2018 18:53:18.12 641.7435 Dreamliner
167 Norwegian TURBO Norway NO-004-18-00175 01.09.2018 18:57:28.80 637.4705 HERLOF
168 Team WAZ Germany DV-09225-18-00554 01.09.2018 18:57:41.63 637.2534
169 EMIEL DENYS-QIU QIAO ZHEN China BE-18-3018139 01.09.2018 18:57:58.68 636.9650
170 Team Preben-Bo-Lars Team Preben-Bo-Lars Denmark 068-18-00051 01.09.2018 18:58:35.28 636.3469 Flying for Gold
171 Niels Tonnisen Denmark 113-18-00430 01.09.2018 18:59:16.46 635.6528 430
172 Brian Nielsen Denmark 023-18-00225 01.09.2018 18:59:36.51 635.3154
173 Haggenmüller-Scharp Germany DV-04116-18-635 01.09.2018 19:04:07.53 630.7900 bijou 1
174 Team H.C Denmark 070-18-00319 01.09.2018 19:05:20.67 629.5797
175 Zoran og Goran Trailovic Serbia SRB-960-18-00748 01.09.2018 19:06:05.37 628.8423
176 Dream Team Markussen Denmark 055-18-00350 01.09.2018 19:06:18.25 628.6302
177 Team Traj Norway NO-024-18-00523 01.09.2018 19:09:24.11 625.5847
178 Bjørn Myhra Norway NO-007-18-00136 01.09.2018 19:10:51.92 624.1561 TRIM
179 “Wonder Pigeon Team”. Italy POR-18-8008359 01.09.2018 19:12:06.82 622.9427
180 Team OK Denmark 077-18-00617 01.09.2018 19:26:55.66 608.8950 KC. 2
181 Thailand World Championship Thailand BE-18-3117137 01.09.2018 19:27:51.52 608.0333
182 Team Vibeke Denmark 070-18-00261 01.09.2018 19:27:57.60 607.9397 Alberte
183 Kenneth & Peter Björk Sweden S-20-18-00174 01.09.2018 19:35:34.68 600.9814
184 Team Sylt 2000 Germany DV-02082-18-190 01.09.2018 19:36:34.34 600.0849 Sylt Werner/Heun 5
185 Team Arne og Rune Norway NO-026-18-01644 01.09.2018 19:36:55.43 599.7686
186 Thorkil Thomsen Denmark 070-18-00025 01.09.2018 19:40:28.46 596.5926
187 Dream Team Markussen Denmark 055-18-00344 01.09.2018 19:41:04.48 596.0589
188 Bedrich Mach Sweden SE-18-88-247 01.09.2018 19:41:08.69 595.9965
189 Anders Brøbech Denmark 073-18-05326 01.09.2018 19:50:49.61 587.5209
190 Kristian Gammelgård Denmark 084-18-00731 01.09.2018 19:58:20.60 581.1054
191 Familie Joekel Germany DV-07001-18-932 01.09.2018 19:59:55.76 579.7695
192 Poul Erik Noe Denmark 224-18-00167 01.09.2018 20:01:56.74 578.0801
193 Torben Mortensen Denmark 250-18-06801 01.09.2018 20:03:20.49 576.9163
194 Dream Team Markussen Denmark 055-18-00343 01.09.2018 20:05:14.70 575.3368
195 Gerard Koopman Netherlands NL-18-1455553 01.09.2018 20:06:20.92 574.4249
196 Winkie Pigeons Spain ES-18-144459 01.09.2018 20:09:12.25 572.0790
197 P4 eftermiddags radio Denmark 070-18-00369 01.09.2018 20:14:47.20 567.5476 torpeduen
198 Bjørn Ove Helgesen Norway NOR-032-18-00117 01.09.2018 20:14:50.70 567.5007 Kleine 117
199 Team Lolholm Denmark 066-18-00200 01.09.2018 20:21:05.38 562.5170
200 Team Sylt 2000 Germany DV-06278-18-456 01.09.2018 20:25:27.52 559.0819 Sylt Fle/Wo 2
201 Janusszc Drozdowski Denmark PL-0323-18-00730 01.09.2018 20:47:35.07 542.3107
202 KARAKURTPİGEONS Turkey TR-18-027158 01.09.2018 20:48:16.51 541.8034
203 MURRAY AND MILLS United Kingdom GB-18-Z-81004 02.09.2018 07:12:41.75 293.5358 Jasmine
204 Evald Jensen Denmark 076-18-00785 02.09.2018 07:14:17.83 293.1913 Gorm
205 Reidar Ørmen Norway NO-008-18-00231 02.09.2018 07:44:09.35 286.9120
206 Arild Helle Norway NO-024-18-00499 02.09.2018 07:44:39.08 286.8100 HELLERASKEN
207 VIKATO Denmark 172-18-00313 02.09.2018 07:44:56.35 286.7509
208 Michael Hansen Denmark 036-18-05259 02.09.2018 07:45:35.16 286.6180 DE 5259
209 Oliver Heckl Germany DV-08879-18-1331 02.09.2018 07:46:14.49 286.4834
210 Team Herlof Norway 086-18-00748 02.09.2018 07:54:47.59 284.7394 Queen Jerup
211 Vanhee A&M Belgium BE-18-3108262 02.09.2018 07:55:50.32 284.5277
212 Familie Soellner Familie Soellner Germany DV-02733-18-1893 02.09.2018 07:55:54.46 284.5137
213 Norwegian TURBO Norway NO-026-18-858 02.09.2018 07:55:58.12 284.5014 Mojo 4
214 ZG Helios Yu Tao & Hübner & Gehrken Germany DV-1777-18-480 02.09.2018 07:56:14.02 284.4477
215 Haci Omer Enson Denmark 004-18-02207 02.09.2018 07:58:04.43 284.0760 Arda
216 Team Morsø Denmark 075-18-01241 02.09.2018 07:58:49.19 283.9256 Rudy
217 Team Holding Denmark 073-18-05333 02.09.2018 07:58:50.02 283.9228 GB
218 Jæren Brevdueforening Norway NO-015-18-01310 02.09.2018 07:58:59.96 283.8894
219 Team Vibeke Denmark 070-18-00266 02.09.2018 07:59:01.16 283.8854 Mads P.
220 Dream Team Markussen Denmark 055-18-00375 02.09.2018 07:59:53.82 283.7087
221 Familien Krogsætter Norway N-018-18-00144 02.09.2018 08:05:14.90 282.6359
222 Masscott United Kingdom GB-18-D-09190 02.09.2018 08:18:18.94 280.0501 Scarface
223 Niels J. Paulin Denmark 063-18-09225 02.09.2018 08:18:43.76 279.9691
224 Team Jørgensen Denmark 033-18-00419 02.09.2018 08:18:44.94 279.9652 Frk. Gaby
225 Beyers Racing team Iluma Belgium BE-18-5069791 02.09.2018 08:18:58.91 279.9196
226 Team Holding Denmark 073-18-05450 02.09.2018 08:19:08.13 279.8895
227 Bent Andersen Denmark 068-18-00185 02.09.2018 08:25:02.02 278.7391
228 Anders Brøbech Denmark 073-18-05461 02.09.2018 08:25:25.36 278.6636
229 Jan and Anja Abbing Netherlands NL-18-5152542 02.09.2018 08:27:39.98 278.2287
230 Peter Espersen Denmark 151-18-00516 02.09.2018 08:27:42.01 278.2221
231 Ivan Pedersen Denmark 250-18-06695 02.09.2018 08:27:58.23 278.1698 Michael
232 Team Ray & S.Veiland Norway NO-026-18-01248 02.09.2018 08:33:59.01 277.0115
233 O.P og sønner Denmark 224-18-00319 02.09.2018 08:34:38.03 276.8868
234 Team Sylt 2000 Germany DV-08345-18-082 02.09.2018 08:35:31.24 276.7169 Sylt Fuschera 1
235 Team Nor-Pol Norway NO-026-18-00744 02.09.2018 08:38:58.78 276.0563
236 Team Happy Pigeon Denmark 250-18-06625 02.09.2018 08:39:35.37 275.9402
237 Sveinar Kringlebotten Norway NO-032-18-00404 02.09.2018 08:40:23.49 275.7876 Håkon
238 Team Modena Master Denmark 232-18-00228 02.09.2018 08:40:24.18 275.7854
239 The Boys From Hardinxveld Netherlands NL-18-1113262 02.09.2018 08:42:35.16 275.3710
240 Johnny Plath Denmark 240-18-01546 02.09.2018 08:47:07.59 274.5129
241 Team Thomas og Tage Denmark 009-18-1978 02.09.2018 08:55:29.32 272.9465
242 Klitten Denmark 166-18-00281 02.09.2018 09:00:13.52 272.0671 Klitten 1
243 Haggenmüller-Scharp Germany DV-02741-18-018 02.09.2018 09:02:15.81 271.6905
244 Team Lincs United Kingdom GB-18-X-48239 02.09.2018 09:03:09.67 271.5249
245 Johnny Plath Denmark 240-18-01599 02.09.2018 09:04:30.98 271.2754
246 Team Doris Denmark 063-18-09278 02.09.2018 09:05:01.01 271.1833
247 Team Arne og Rune Norway NO-026-18-01641 02.09.2018 09:05:10.06 271.1556
248 Team Holding Denmark 073-18-05367 02.09.2018 09:07:24.86 270.7433 Bulk
249 Eigil Jensen Denmark 193-18-00359 02.09.2018 09:07:32.58 270.7197
250 Michael Hansen Denmark 036-18-05318 02.09.2018 09:07:41.93 270.6912 DE 5318
251 Brian Clayburn United Kingdom GB-18-N-62711 02.09.2018 09:07:46.67 270.6767 Blazing Dreams
252 Team Vikings Denmark 113-18-00138 02.09.2018 09:07:58.11 270.6418 Harald
253 Team Modena Master Denmark 232-18-00211 02.09.2018 09:09:02.64 270.4450
254 Beyers Racing team Iluma Belgium BE-18-5069797 02.09.2018 09:09:13.45 270.4120
255 633 Squadron United Kingdom GB-18-Z-01212 02.09.2018 09:09:49.29 270.3029 Jakings
256 Team Myreng Norway NO-004-18-00179 02.09.2018 09:12:36.39 269.7951 Red Fighter
257 TEAM V&V HAUGESUND Norway N-017-18-00653 02.09.2018 09:13:14.38 269.6800 JIV 3
258 Norwegian TURBO Norway NO-004-18-00168 02.09.2018 09:17:05.07 268.9827 HAVING FUN
259 Comb. De Leeuw Van Benten Netherlands NL-18-1664481 02.09.2018 09:19:50.62 268.4845
260 Jan Pedersen Denmark 216-18-00165 02.09.2018 09:22:07.33 268.0746 BOOMERANG
261 Egon Klitgård Denmark 220-18-00889 02.09.2018 09:22:24.34 268.0236 Tove
262 Team Tromøy/Geir Erling Birkeland Norway NO-014-18-242 02.09.2018 09:22:29.02 268.0096 Tromøy 1
263 Familie Soellner Familie Soellner Germany DV-02733-18-1861 02.09.2018 09:25:27.92 267.4753
264 Team Holding Denmark 073-18-05370 02.09.2018 09:26:39.90 267.2609 Transport
265 pricewater house revision Denmark 070-18-00284 02.09.2018 09:27:05.61 267.1844
266 Team Modena Master Denmark 232-18-00201 02.09.2018 09:27:38.78 267.0858
267 Svend Juul Jensen Denmark 076-18-01141 02.09.2018 09:32:41.06 266.1903 Juul’s FABIA
268 Team Vikings Denmark 113-18-00120 02.09.2018 09:38:32.20 265.1576 Lagertha
269 Hold 1-2-3 Denmark 070-18-00515 02.09.2018 09:38:38.09 265.1404 Ole
270 Tom Melgard Denmark 193-18-00281 02.09.2018 09:39:51.66 264.9250
271 Fast Pigeons & Ervin Laro Italy IT-18-411389 02.09.2018 09:40:27.09 264.8215
272 Team Tordenbrag Denmark 071-18-00654 02.09.2018 09:41:33.77 264.6268 Hans Shinkansen
273 Paul Romkes Netherlands NL-18-4295624 02.09.2018 09:41:35.56 264.6216 Gerda
274 Team Appaz Feim Turkey TR-18-060817 02.09.2018 09:41:37.83 264.6149
275 Krzysztof Bury Norway NO-080-18-01469 02.09.2018 09:42:20.63 264.4901
276 Team Thiriau France 023-18-00607 02.09.2018 09:42:21.37 264.4880 Pogba
277 Ragnar Johansen Norway N-006-18-00028 02.09.2018 09:43:15.04 264.3316 Ole
278 Sveinar Kringlebotten Norway NO-032-18-00414 02.09.2018 09:43:42.08 264.2529 Elias
279 Team Herlof Norway 074-18-00588 02.09.2018 09:43:44.37 264.2463
280 Haggenmüller-Scharp Germany DV-04116-18-617 02.09.2018 09:44:34.26 264.1012 xavi 3
281 Karl Heinz Lang Germany DV-8596-18-425 02.09.2018 09:45:01.18 264.0230
282 Team Nor-Pol Norway NO-026-18-00742 02.09.2018 09:45:47.88 263.8874
283 Mölndal BK.07-Sweden Sweden S-VBF-18-2621 02.09.2018 09:46:06.18 263.8343 Cheyma
284 Jan and Anja Abbing Netherlands NL-18-5152544 02.09.2018 09:46:10.76 263.8210
285 633 Squadron United Kingdom GB-18-Z-25816 02.09.2018 09:50:00.66 263.1560 Alf
286 Team Racing Pigeons Jebjerg Denmark 170-18-00268 02.09.2018 09:51:03.31 262.9753 Tuborg 3
287 Norwegian TURBO Norway NO-026-18-339 02.09.2018 09:51:34.29 262.8861 Oseberg
288 Familien Krogsætter Norway N-018-18-00135 02.09.2018 09:51:51.43 262.8368
289 Jupid-Jung Germany DV-08857-18-20 02.09.2018 09:53:30.23 262.5527 Darian
290 Lars Eikeland Norway N-018-18-00060 02.09.2018 09:55:13.20 262.2572 Stord 3
291 EMIEL DENYS-QIU QIAO ZHEN China BE-18-3018025 02.09.2018 09:57:58.82 261.7835
292 Scheinker-Flick Germany DV-01882-18-185 02.09.2018 09:58:15.93 261.7346 Sylt Hanno 1
293 Team Traj Norway NO-026-18-02152 02.09.2018 10:07:19.92 260.1910 White Wings
294 Peter Schacht Germany DV-08345-18-340 02.09.2018 10:07:41.69 260.1296 Sylt Schacht 4
295 Norwegian TURBO Norway NO-026-18-866 02.09.2018 10:07:42.73 260.1267 Mojo 5
296 Bjørn Myhra Norway NO-007-18-00138 02.09.2018 10:07:44.00 260.1231 PER
297 Familie Joekel Germany DV-07001-18-908 02.09.2018 10:07:55.06 260.0919
298 Lind / Thomsen-Petersen Denmark 240-18-01432 02.09.2018 10:11:22.76 259.5078 Jette
299 Team GPS Netherlands NL-18-4297964 02.09.2018 10:11:33.85 259.4767
300 Karl-Heinz-Timo Wagner Germany DV-07768-18-01032 02.09.2018 10:11:40.12 259.4591
301 Le Team Roquefort Denmark 073-18-05340 02.09.2018 10:12:12.45 259.3685
302 Winkie Pigeons Spain ES-18-144460 02.09.2018 10:23:50.84 257.4255
303 Team GAJOL Denmark 075-18-01650 02.09.2018 10:24:00.29 257.3995 Gajol 2
304 Oliver Heckl Germany DV-08879-18-1319 02.09.2018 10:24:25.11 257.3310
305 The Lever Syndicate United Kingdom GB-18-R-10129 02.09.2018 10:24:26.77 257.3264
306 Team Nor-Pol Norway NO-026-18-01820 02.09.2018 10:24:38.09 257.2951
307 Michael Hansen Denmark 036-18-05317 02.09.2018 10:24:52.20 257.2562 DE 5317
308 Gino Clicque Belgium BE-18-3003377 02.09.2018 10:25:20.86 257.1772
309 Team EOTS Netherlands NL-18-5176885 02.09.2018 10:26:31.29 256.9833 Oase
310 Ivan Pedersen Denmark 250-18-06696 02.09.2018 10:26:53.26 256.9228 Jesper
311 EMIEL DENYS-QIU QIAO ZHEN China BE-18-3018137 02.09.2018 10:28:36.93 256.6380
312 TEAM V&V HAUGESUND Norway N-017-18-00652 02.09.2018 10:28:40.06 256.6294 JIV 2
313 Team Jebjerg Denmark 170-18-00388 02.09.2018 10:29:11.21 256.5440
314 Jupid-Jung Germany DV-08857-18-28 02.09.2018 10:32:18.53 256.0313 Andriana
315 Marlis Schlüter Germany DV-01906-18-00290 02.09.2018 10:35:11.52 255.5597
316 Sveinar Kringlebotten Norway NO-032-18-00411 02.09.2018 10:35:42.72 255.4748 Stian
317 Norwegian TURBO Norway NO-026-18-874 02.09.2018 10:36:04.88 255.4146 Mojo 1
318 Norwegian TURBO Norway NO-026-18-871 02.09.2018 10:36:14.50 255.3884 Mojo 3
319 Team Lilian Denmark 165-18-00161 02.09.2018 10:36:43.29 255.3102
320 Team Racing Pigeons Jebjerg Denmark 170-18-00277 02.09.2018 10:41:02.02 254.6094
321 Team Denmark Belgiums Best Belgium 070-18-00280 02.09.2018 10:41:14.26 254.5764 Muscle power 2
322 Norwegian TURBO Norway NO-026-18-356 02.09.2018 10:42:10.36 254.4250 Turbo
323 J og K. Sørensen Denmark 086-18-01228 02.09.2018 10:43:24.82 254.2243
324 Team Henning & Niels Denmark 220-18-01172 02.09.2018 10:43:55.90 254.1406 Joint Strike Fighter 4
325 Anders Brøbech Denmark 073-18-05388 02.09.2018 10:45:01.73 253.9636
326 Team Nor-Pol Norway NO-026-18-01812 02.09.2018 10:45:49.86 253.8343
327 KARAKURTPİGEONS Turkey TR-18-027159 02.09.2018 10:48:03.76 253.4754
328 Jupid-Jung Germany DV-08857-18-60 02.09.2018 10:48:58.86 253.3279 Cleo
329 Poul Erik Ullits Denmark 126-18-01613 02.09.2018 10:49:29.53 253.2460
330 Konrad Sunde & Sønn Norway NO-016-18-00302 02.09.2018 10:50:59.62 253.0054
331 Team Traj Norway NO-026-18-02162 02.09.2018 10:56:33.81 252.1172 Liam
332 Team Bad Boys Germany Germany DV-06460-18-608 02.09.2018 10:56:37.63 252.1071
333 Kristian Gammelgård Denmark 084-18-00733 02.09.2018 10:56:48.06 252.0795
334 Karl Heinz Wichert Germany DV-2618-18-792 02.09.2018 10:57:47.44 251.9224
335 Helle og Louis Denmark 046-18-00227 02.09.2018 10:58:17.20 251.8437 RAKSHA
336 Winkie Pigeons Spain ES-18-144542 02.09.2018 11:09:34.32 250.0669
337 Team Bad Boys Germany Germany DV-04751-18-222 02.09.2018 11:10:10.23 249.9734 reserve
338 Jan Kania Denmark 038-18-5226 02.09.2018 11:22:58.35 247.9893
339 Ionut Silviu Ghiviriga Denmark 170-18-00148 02.09.2018 11:23:06.39 247.9687
340 Beniamin Neag Austria AUS-602-18-113 02.09.2018 11:23:33.62 247.8990
341 Niels J. Paulin Denmark 063-18-09243 02.09.2018 11:24:05.47 247.8175
342 Walther Thun Germany DV-01455-18-00092 02.09.2018 11:30:02.36 246.9076 Sylt Thun 1
343 Team Hansen Denmark 207-18-00420 02.09.2018 11:30:23.57 246.8537 Blob
344 Hold 1-2-3 Denmark 070-18-00497 02.09.2018 11:30:43.64 246.8028 Pia
345 Ole Johansen Denmark 128-18-04116 02.09.2018 11:36:41.53 245.8978 Lene
346 Tandem in Memoriam Spain ESP-18-251126 02.09.2018 11:39:52.25 245.4182
347 Bjørn Ove Helgesen Norway NOR-032-18-00127 02.09.2018 11:39:56.62 245.4073 LUCKY DREAM
348 Team Gourmet Denmark 070-18-00270 02.09.2018 11:46:33.91 244.4143
349 Karl Heinz Wichert Germany DV-2618-18-700 02.09.2018 11:47:33.16 244.2670
350 pricewater house revision Denmark 070-18-00278 02.09.2018 11:47:33.23 244.2668
351 Haci Omer Enson Denmark 004-18-02209 02.09.2018 11:48:05.68 244.1861 Malik
352 Team Ray & S.Veiland Norway NO-026-18-01359 02.09.2018 11:50:32.05 243.8230
353 Jupid-Jung Germany DV-08857-18-72 02.09.2018 11:54:20.87 243.2575 Kalea
354 Heinz Hansen Germany DV-07648-18-309 02.09.2018 12:01:16.27 242.2376 Sylt Hansen 2
355 Team OS Norway N-19-18-00016 02.09.2018 12:02:03.68 242.1218
356 Bart & Nance van Oeckel Belgium BE-18-6058312 02.09.2018 12:03:38.43 241.8905
357 Holger Wittke Denmark 036-18-05156 02.09.2018 12:08:15.25 241.2175 Katja
358 Walter Griese Germany DV-03590-18-00641 02.09.2018 12:08:42.34 241.1519
359 The Garden Gnomes United Kingdom GB-18-N-60157 02.09.2018 12:09:13.76 241.0758 Harry
360 Anders Brøbech Denmark 073-18-05437 02.09.2018 12:14:38.11 240.2929
361 Gr. 7 af NBF Norway NO-008-18-00323 02.09.2018 12:21:28.00 239.3108 ARNE
362 Jørgen Damgaard Denmark 075-18-01848 02.09.2018 12:22:25.65 239.1733 Jodie
363 Sveinar Kringlebotten Norway NO-032-18-00402 02.09.2018 12:28:17.44 238.3377 Kjelli
364 Jupid-Jung Germany DV-08857-18-25 02.09.2018 12:34:23.15 237.4753 Nava
365 Team Holding Denmark 073-18-05612 02.09.2018 12:40:11.62 236.6593
366 Torfin Midttveit Norway N-026-18-00372 02.09.2018 12:46:10.89 235.8238
367 Mölndal BK.07-Sweden Sweden S-07-18-456 02.09.2018 13:03:47.59 233.4004 reserve 2
368 Team Røstad/Karlsen Norway NO-008-18-00329 02.09.2018 13:03:51.87 233.3907 SELLO
369 Erling Nyrup Denmark 220-18-00959 02.09.2018 13:04:38.20 233.2856 Liva
370 Herluf Bennetzen Denmark 071-18-00327 02.09.2018 13:07:23.01 232.9125
371 Gino Clicque Belgium BE-18-3003406 02.09.2018 13:14:20.37 231.9729
372 Familie Joekel Germany DV-07001-18-919 02.09.2018 13:14:29.54 231.9523
373 Rasserne Denmark 093-18-01080 02.09.2018 13:19:39.32 231.2599
374 Anna og Mads Denmark 170-18-00279 02.09.2018 13:41:24.10 228.3885 Anna
375 Team OS Norway N-019-18-00442 02.09.2018 13:54:25.19 226.7034
376 Norwegian TURBO Norway NO-080-18-693 02.09.2018 13:54:37.34 226.6774 Frode 2
377 Karl Heinz Wichert Germany DV-2618-18-683 02.09.2018 14:02:20.37 225.6904
378 Henrik Marklund Sweden SE-37-18-00110 02.09.2018 14:04:14.52 225.4484 Hulk
379 N+P+3xJ Denmark 117-18-00161 02.09.2018 14:17:23.48 223.7898 Mane
380 Toncho Metodiev Denmark 071-18-00935 02.09.2018 14:20:54.08 223.3512
381 Anders Brøbech Denmark 073-18-05410 02.09.2018 14:34:58.91 221.6089
382 Emeralds & Diamonds Dynasty Northern Ireland GB-18-V-12801 02.09.2018 14:45:51.40 220.2817 Sapphire Dynasty
383 Team Kegleklubben 1864 Denmark 070-18-00275 02.09.2018 14:54:13.64 219.2709 Underbjerg
384 Team 140 Denmark 140-18-00294 02.09.2018 14:55:01.73 219.1746 Snelle Jelle
385 Krzysztof Bury Norway NO-080-18-01468 02.09.2018 14:55:03.45 219.1712
386 Tad T United Kingdom GB-18-L-26102 02.09.2018 14:56:13.53 219.0310 Favorite Boy
387 Jupid-Jung Germany DV-08857-18-68 02.09.2018 15:18:43.57 216.3652 Kiran
388 Team Morsø Denmark 075-18-02347 02.09.2018 15:29:05.53 215.1588 Henri
389 Team FCK Denmark 075-18-01443 02.09.2018 15:47:08.21 213.0905 Kent
390 Zoran og Goran Trailovic Serbia SRB-18-960747 02.09.2018 15:49:46.62 212.7912
391 Johannes Bø Norway N-016-18-00005 02.09.2018 15:57:12.47 211.9533
392 Silvercreek Lofts Canada Canada AU-18-SILVERCREEK-56 02.09.2018 16:10:00.67 210.5251
393 Michael Hansen Denmark 036-18-05316 02.09.2018 16:23:33.06 209.0355 DE 5316
394 Tom & Lars Corneliussen Norway NO-002-18-0167 02.09.2018 17:21:58.73 202.8419 Boba Fett
395 Walter Smith United Kingdom GB-18-N-10577 02.09.2018 17:27:57.09 202.2294
396 Stefan Degiacinto Netherlands NL-18-1815152 02.09.2018 17:29:38.92 202.0561
397 Team Kegleklubben 1864 Denmark 070-18-00277 02.09.2018 17:53:31.81 199.6476 Kong Casper
398 Klaus Madsen Denmark 023-18-00141 02.09.2018 18:25:52.32 196.4760 Keld
399 Hans Peter Errath Denmark 225-18-03105 02.09.2018 18:36:50.65 195.4228
400 Team Sylt 2000 Germany DV-02917-18-1109 02.09.2018 19:05:04.93 192.7635 Sylt Fricke/Lübert
401 Team Blokkungerne Norway N-026-18-01530 02.09.2018 19:33:19.53 190.1750 Rumo 2
402 Team Sylt 2000 Germany DV-02082-18-174 03.09.2018 07:27:10.43 141.9863 Sylt Werner/Heun 2
403 Team Vibeke Denmark 070-18-00247 03.09.2018 07:34:20.12 141.6262 Tom
404 Team Nor-Pol Norway NO-026-18-01830 03.09.2018 10:17:41.74 133.8824
405 Hein Van Dam Netherlands NL-18-1652649 03.09.2018 12:45:30.58 127.5710 Gerard
406 Karl Heinz Wichert Germany DV-2618-18-676 03.09.2018 13:26:23.47 125.9291
407 Gebr. Bolk Netherlands NL-18-4717875 03.09.2018 14:10:20.02 124.2107
408 Anne og Maria Ingemann Knudsen Denmark 070-18-00318 03.09.2018 15:21:58.41 121.5077
409 Ranar Jørgensen Norway N-008-18-00229 03.09.2018 15:53:05.12 120.3701
410 Dek Twente Netherlands NL-18-1563992 03.09.2018 16:19:00.29 119.4385 Lars 2
411 KARAKURTPİGEONS Turkey TR-18-027059 03.09.2018 20:04:13.22 111.9125
412 Helle og Jens Pedersen Denmark 076-18-00958 04.09.2018 09:08:47.24 91.7686 NOAH
413 Haggenmüller-Scharp Germany DV-04116-18-511 04.09.2018 09:14:18.69 91.6525 Gaba 1
414 Tony & Brian Denmark 209-18-00816 04.09.2018 09:18:06.99 91.5726 Long Star
415 Pfoh/Eichert Germany DV-04762-18-420 04.09.2018 10:37:52.01 89.9307

Bir Cevap Yazın

This site uses Akismet to reduce spam. Learn how your comment data is processed.

%d blogcu bunu beğendi: